Time;durP1;ratioP1;P1;durP2;ratioP2;P2;SDS_P1;SDS_P2;PMS_P1;PMS_P2;Temp;Humidity;BMP_temperature;BMP_pressure;BME280_temperature;BME280_humidity;BME280_pressure;Samples;Min_cycle;Max_cycle;Signal;HPM_P1;HPM_P2
2023/10/03 00:01:43;;;;;;;35.88;18.05;;;18.20;99.90;;;;;;5055349;28;20476;-80
2023/10/03 00:04:09;;;;;;;32.88;18.23;;;18.20;99.90;;;;;;5037895;28;20055;-79
2023/10/03 00:06:36;;;;;;;34.13;18.80;;;18.20;99.90;;;;;;5054572;28;20049;-79
2023/10/03 00:09:02;;;;;;;34.45;19.05;;;18.10;99.90;;;;;;5053765;28;20095;-79
2023/10/03 00:11:27;;;;;;;35.20;19.52;;;18.20;99.90;;;;;;5055039;28;20037;-79
2023/10/03 00:13:53;;;;;;;34.70;18.70;;;18.20;99.90;;;;;;5054953;28;20037;-79
2023/10/03 00:16:20;;;;;;;37.28;18.63;;;18.10;99.90;;;;;;5054133;28;20033;-80
2023/10/03 00:18:47;;;;;;;37.70;19.30;;;18.10;99.90;;;;;;5056157;28;20037;-80
2023/10/03 00:21:12;;;;;;;34.90;19.23;;;18.10;99.90;;;;;;5054011;28;20044;-79
2023/10/03 00:23:38;;;;;;;33.35;17.90;;;18.10;99.90;;;;;;5055479;28;20061;-79
2023/10/03 00:26:07;;;;;;;34.92;19.30;;;18.10;99.90;;;;;;5055255;28;20119;-79
2023/10/03 00:28:33;;;;;;;33.78;18.65;;;18.10;99.90;;;;;;5054742;28;20045;-79
2023/10/03 00:31:00;;;;;;;32.10;18.35;;;18.00;99.90;;;;;;5056155;28;20037;-79
2023/10/03 00:33:26;;;;;;;36.67;19.33;;;18.00;99.90;;;;;;5054534;28;20407;-79
2023/10/03 00:35:52;;;;;;;35.22;18.75;;;18.00;99.90;;;;;;5053873;28;20052;-79
2023/10/03 00:38:18;;;;;;;33.42;18.67;;;18.00;99.90;;;;;;5053088;28;20403;-79
2023/10/03 00:40:53;;;;;;;38.03;19.65;;;18.00;99.90;;;;;;5054362;28;20044;-79
2023/10/03 00:43:19;;;;;;;32.15;19.08;;;18.00;99.90;;;;;;5053800;28;20037;-78
2023/10/03 00:45:45;;;;;;;34.70;18.85;;;18.00;99.90;;;;;;5037328;28;20404;-79
2023/10/03 00:48:12;;;;;;;35.53;19.98;;;17.90;99.90;;;;;;5054788;28;20424;-79
2023/10/03 00:50:39;;;;;;;44.38;19.15;;;17.90;99.90;;;;;;5052846;28;20549;-78
2023/10/03 00:53:09;;;;;;;36.83;18.00;;;17.90;99.90;;;;;;5054538;28;20063;-79
2023/10/03 00:55:38;;;;;;;37.55;19.25;;;17.90;99.90;;;;;;5053289;28;20079;-78
2023/10/03 01:00:38;;;;;;;35.20;19.00;;;17.80;99.90;;;;;;5053148;28;20073;-78
2023/10/03 01:03:06;;;;;;;34.10;18.98;;;17.90;99.90;;;;;;5035820;28;20037;-78
2023/10/03 01:05:36;;;;;;;35.28;19.42;;;17.80;99.90;;;;;;5038418;28;20127;-78
2023/10/03 01:08:03;;;;;;;34.90;19.58;;;17.80;99.90;;;;;;5035023;28;20045;-78
2023/10/03 01:10:29;;;;;;;32.88;18.52;;;17.80;99.90;;;;;;5053623;28;20048;-78
2023/10/03 01:12:55;;;;;;;35.85;19.90;;;17.80;99.90;;;;;;5052237;28;20090;-78
2023/10/03 01:15:21;;;;;;;35.17;18.25;;;17.80;99.90;;;;;;5051919;28;20204;-78
2023/10/03 01:17:53;;;;;;;35.85;20.08;;;17.80;99.90;;;;;;5052104;28;20033;-78
2023/10/03 01:20:29;;;;;;;33.28;18.20;;;17.80;99.90;;;;;;5051800;28;20404;-77
2023/10/03 01:22:56;;;;;;;35.85;19.35;;;17.70;99.90;;;;;;5053986;28;20040;-79
2023/10/03 01:25:25;;;;;;;34.45;19.17;;;17.70;99.90;;;;;;5052548;28;20040;-78
2023/10/03 01:27:51;;;;;;;37.03;19.38;;;17.70;99.90;;;;;;5051982;28;20049;-79
2023/10/03 01:30:16;;;;;;;39.70;18.95;;;17.70;99.90;;;;;;5035059;28;20048;-78
2023/10/03 01:32:49;;;;;;;35.03;18.92;;;17.70;99.90;;;;;;5052566;28;20041;-78
2023/10/03 01:35:15;;;;;;;34.37;17.67;;;17.70;99.90;;;;;;5052434;28;20100;-78
2023/10/03 01:37:41;;;;;;;35.17;18.23;;;17.60;99.90;;;;;;5052097;28;20129;-78
2023/10/03 01:40:13;;;;;;;32.65;17.17;;;17.60;99.90;;;;;;5050679;28;20037;-78
2023/10/03 01:42:46;;;;;;;36.25;18.50;;;17.60;99.90;;;;;;5036112;28;20044;-79
2023/10/03 01:45:21;;;;;;;34.63;19.37;;;17.60;99.90;;;;;;5052407;28;20248;-78
2023/10/03 01:47:51;;;;;;;32.92;17.95;;;17.60;99.90;;;;;;5051613;28;20040;-79
2023/10/03 01:50:21;;;;;;;34.85;18.63;;;17.60;99.90;;;;;;5036128;28;20076;-78
2023/10/03 01:52:48;;;;;;;33.67;18.73;;;17.60;99.90;;;;;;5050863;28;20041;-78
2023/10/03 01:55:17;;;;;;;38.40;18.67;;;17.50;99.90;;;;;;5051928;28;20033;-79
2023/10/03 01:57:43;;;;;;;35.50;18.35;;;17.60;99.90;;;;;;5052665;28;20032;-78
2023/10/03 02:00:35;;;;;;;34.78;18.10;;;17.60;99.90;;;;;;5050682;28;20077;-78
2023/10/03 02:03:12;;;;;;;37.20;19.40;;;17.50;99.90;;;;;;5051488;28;20413;-78
2023/10/03 02:05:42;;;;;;;32.08;17.48;;;17.60;99.90;;;;;;5051316;28;20056;-78
2023/10/03 02:08:12;;;;;;;33.42;17.48;;;17.50;99.90;;;;;;5050892;28;20072;-78
2023/10/03 02:10:43;;;;;;;35.15;16.98;;;17.50;99.90;;;;;;5051162;28;20048;-78
2023/10/03 02:13:14;;;;;;;33.22;17.25;;;17.50;99.90;;;;;;5034739;28;20044;-78
2023/10/03 02:15:40;;;;;;;32.22;17.67;;;17.50;99.90;;;;;;5052927;28;20116;-79
2023/10/03 02:18:09;;;;;;;31.98;16.38;;;17.50;99.90;;;;;;5050035;28;20052;-77
2023/10/03 02:20:38;;;;;;;33.13;16.42;;;17.50;99.90;;;;;;5051218;28;20563;-78
2023/10/03 02:23:05;;;;;;;30.55;16.20;;;17.50;99.90;;;;;;5051237;28;20059;-78
2023/10/03 02:25:37;;;;;;;38.80;17.05;;;17.50;99.90;;;;;;5052378;28;20073;-79
2023/10/03 02:28:05;;;;;;;31.00;16.65;;;17.50;99.90;;;;;;5035105;28;20041;-78
2023/10/03 02:30:31;;;;;;;30.60;15.90;;;17.50;99.90;;;;;;5051094;28;20045;-78
2023/10/03 02:33:04;;;;;;;34.58;15.50;;;17.50;99.90;;;;;;5051158;28;20341;-78
2023/10/03 02:35:29;;;;;;;31.35;15.43;;;17.50;99.90;;;;;;5053483;28;20041;-79
2023/10/03 02:37:56;;;;;;;33.15;16.77;;;17.50;99.90;;;;;;5052037;28;20029;-77
2023/10/03 02:40:26;;;;;;;37.10;15.98;;;17.50;99.90;;;;;;5053607;28;20040;-79
2023/10/03 02:42:54;;;;;;;33.90;16.30;;;17.60;99.90;;;;;;5053620;28;20037;-78
2023/10/03 02:45:23;;;;;;;30.52;15.68;;;17.60;99.90;;;;;;5055692;28;20127;-79
2023/10/03 02:47:51;;;;;;;28.42;14.95;;;17.70;99.90;;;;;;5053406;28;20095;-78
2023/10/03 02:50:17;;;;;;;33.85;16.13;;;17.70;99.90;;;;;;5055325;28;20098;-79
2023/10/03 02:52:45;;;;;;;32.05;15.55;;;17.70;99.90;;;;;;5056753;28;20318;-78
2023/10/03 02:55:15;;;;;;;34.80;16.27;;;17.70;99.90;;;;;;5057653;28;20045;-79
2023/10/03 02:57:41;;;;;;;30.42;15.73;;;17.70;99.90;;;;;;5056281;28;20033;-80
2023/10/03 03:00:14;;;;;;;32.05;15.50;;;17.70;99.90;;;;;;5037795;28;20171;-78
2023/10/03 03:02:47;;;;;;;30.25;14.90;;;17.70;99.90;;;;;;5039159;28;20377;-77
2023/10/03 03:05:17;;;;;;;28.63;15.15;;;17.70;99.90;;;;;;5056192;28;20088;-79
2023/10/03 03:07:48;;;;;;;32.92;15.85;;;17.70;99.90;;;;;;5038916;28;20121;-78
2023/10/03 03:10:16;;;;;;;30.48;15.45;;;17.80;99.90;;;;;;5054329;28;20049;-77
2023/10/03 03:12:43;;;;;;;31.13;14.38;;;17.70;99.90;;;;;;5038568;28;20044;-77
2023/10/03 03:15:11;;;;;;;29.70;14.73;;;17.80;99.90;;;;;;5054886;28;20384;-78
2023/10/03 03:17:39;;;;;;;28.15;14.68;;;17.70;99.90;;;;;;5055107;28;20056;-78
2023/10/03 03:20:07;;;;;;;28.10;14.63;;;17.70;99.90;;;;;;5055406;28;20112;-78
2023/10/03 03:22:33;;;;;;;33.30;15.10;;;17.70;99.90;;;;;;5038831;28;20033;-77
2023/10/03 03:24:58;;;;;;;30.55;14.98;;;17.60;99.90;;;;;;5055893;28;20059;-77
2023/10/03 03:27:26;;;;;;;31.35;15.55;;;17.70;99.90;;;;;;5056015;28;20500;-78
2023/10/03 03:30:09;;;;;;;26.52;14.02;;;17.60;99.90;;;;;;5054616;28;20531;-78
2023/10/03 03:32:36;;;;;;;29.10;14.75;;;17.70;99.90;;;;;;5056042;28;20037;-77
2023/10/03 03:35:02;;;;;;;27.80;14.68;;;17.70;99.90;;;;;;5055641;28;20037;-78
2023/10/03 03:37:37;;;;;;;28.85;14.23;;;17.70;99.90;;;;;;5056077;28;20041;-79
2023/10/03 03:40:11;;;;;;;27.75;13.38;;;17.70;99.90;;;;;;5057146;28;20441;-78
2023/10/03 03:42:37;;;;;;;28.73;14.68;;;17.70;99.90;;;;;;5056175;28;20508;-79
2023/10/03 03:45:04;;;;;;;30.65;13.55;;;17.80;99.90;;;;;;5055765;28;20036;-78
2023/10/03 03:47:31;;;;;;;29.02;13.23;;;17.80;99.90;;;;;;5055988;28;20075;-79
2023/10/03 03:50:01;;;;;;;28.75;13.93;;;17.70;99.90;;;;;;5038749;28;20048;-78
2023/10/03 03:52:29;;;;;;;27.88;13.27;;;17.80;99.90;;;;;;5053804;28;20127;-78
2023/10/03 03:54:55;;;;;;;26.50;13.48;;;17.80;99.90;;;;;;5055359;28;20052;-77
2023/10/03 03:57:21;;;;;;;28.60;13.13;;;17.80;99.90;;;;;;5055277;28;20029;-77
2023/10/03 03:59:47;;;;;;;27.70;13.35;;;17.90;99.90;;;;;;5054789;28;20094;-78
2023/10/03 04:02:13;;;;;;;25.33;12.68;;;17.90;99.90;;;;;;5054684;28;20056;-78
2023/10/03 04:04:39;;;;;;;25.88;12.75;;;17.90;99.90;;;;;;5040303;28;20033;-78
2023/10/03 04:07:05;;;;;;;27.13;12.77;;;18.00;99.90;;;;;;5038666;28;20496;-77
2023/10/03 04:09:30;;;;;;;23.85;11.95;;;18.00;99.90;;;;;;5055570;28;20094;-80
2023/10/03 04:11:58;;;;;;;28.58;13.38;;;18.00;99.90;;;;;;5054881;28;20508;-78
2023/10/03 04:14:23;;;;;;;26.05;13.45;;;18.00;99.90;;;;;;5056295;28;20053;-78
2023/10/03 04:16:51;;;;;;;26.75;12.77;;;18.10;99.90;;;;;;5054851;28;20098;-79
2023/10/03 04:19:16;;;;;;;27.70;13.95;;;18.00;99.90;;;;;;5057453;28;20047;-78
2023/10/03 04:21:42;;;;;;;26.85;13.70;;;18.00;99.90;;;;;;5056527;28;20079;-78
2023/10/03 04:24:10;;;;;;;27.25;13.88;;;18.00;99.90;;;;;;5056099;28;20044;-77
2023/10/03 04:26:36;;;;;;;29.00;14.25;;;18.00;99.90;;;;;;5056906;28;20408;-78
2023/10/03 04:29:02;;;;;;;25.67;13.55;;;18.00;99.90;;;;;;5055833;28;20044;-79
2023/10/03 04:31:28;;;;;;;26.73;13.18;;;17.90;99.90;;;;;;5058845;28;20040;-78
2023/10/03 04:33:54;;;;;;;26.33;12.82;;;17.90;99.90;;;;;;5056339;28;20045;-77
2023/10/03 04:36:24;;;;;;;25.67;12.85;;;18.00;99.90;;;;;;5059094;28;20079;-79
2023/10/03 04:38:50;;;;;;;26.08;12.73;;;17.90;99.90;;;;;;5059638;28;20099;-78
2023/10/03 04:41:17;;;;;;;27.77;13.00;;;17.90;99.90;;;;;;5055251;28;20029;-78
2023/10/03 04:43:43;;;;;;;28.83;13.13;;;18.00;99.90;;;;;;5055640;28;20076;-78
2023/10/03 04:46:08;;;;;;;25.25;12.65;;;18.00;99.90;;;;;;5058348;28;20052;-78
2023/10/03 04:48:34;;;;;;;25.23;12.70;;;18.10;99.90;;;;;;5057018;28;20044;-79
2023/10/03 04:51:00;;;;;;;27.30;12.95;;;18.20;99.90;;;;;;5057137;28;20080;-78
2023/10/03 04:53:25;;;;;;;25.63;12.23;;;18.20;99.90;;;;;;5056975;28;20045;-77
2023/10/03 04:55:51;;;;;;;24.88;12.70;;;18.20;99.90;;;;;;5039932;28;20047;-79
2023/10/03 04:58:16;;;;;;;25.33;12.80;;;18.20;99.90;;;;;;5056737;28;20309;-79
2023/10/03 05:00:42;;;;;;;26.75;12.38;;;18.20;99.90;;;;;;5057017;28;20044;-78
2023/10/03 05:03:09;;;;;;;28.02;12.02;;;18.30;99.90;;;;;;5055838;28;20041;-78
2023/10/03 05:05:35;;;;;;;27.13;12.52;;;18.30;99.90;;;;;;5055875;28;20135;-78
2023/10/03 05:08:02;;;;;;;22.40;11.93;;;18.30;99.90;;;;;;5054547;28;20093;-77
2023/10/03 05:10:29;;;;;;;25.50;12.93;;;18.30;99.90;;;;;;5054153;28;20524;-77
2023/10/03 05:12:55;;;;;;;23.88;13.00;;;18.30;99.90;;;;;;5054740;28;20063;-78
2023/10/03 05:15:21;;;;;;;26.02;13.15;;;18.30;99.90;;;;;;5049378;28;20041;-78
2023/10/03 05:17:48;;;;;;;27.98;12.52;;;18.40;99.90;;;;;;5054778;28;20041;-78
2023/10/03 05:20:15;;;;;;;25.73;12.45;;;18.40;99.90;;;;;;5054011;28;20037;-76
2023/10/03 05:22:41;;;;;;;30.10;12.15;;;18.40;99.90;;;;;;5039647;28;20033;-79
2023/10/03 05:25:11;;;;;;;27.92;13.27;;;18.50;99.90;;;;;;5053378;28;20033;-77
2023/10/03 05:27:41;;;;;;;30.92;12.00;;;18.50;99.90;;;;;;5038748;28;20223;-78
2023/10/03 05:30:08;;;;;;;26.55;11.95;;;18.60;99.90;;;;;;5055677;28;20500;-80
2023/10/03 05:32:38;;;;;;;28.25;12.55;;;18.60;99.90;;;;;;5058399;28;20097;-78
2023/10/03 05:35:05;;;;;;;27.20;12.80;;;18.60;99.90;;;;;;5055149;28;20036;-79
2023/10/03 05:37:33;;;;;;;29.88;12.75;;;18.70;99.90;;;;;;5039348;28;20043;-78
2023/10/03 05:39:59;;;;;;;31.63;12.93;;;18.70;99.90;;;;;;5054939;28;20029;-77
2023/10/03 05:42:26;;;;;;;28.60;12.57;;;18.70;99.90;;;;;;5038769;28;20075;-77
2023/10/03 05:44:53;;;;;;;26.20;13.57;;;18.70;99.90;;;;;;5055181;28;20073;-77
2023/10/03 05:47:20;;;;;;;34.17;13.55;;;18.80;99.90;;;;;;5056876;28;20420;-76
2023/10/03 05:49:45;;;;;;;30.50;14.35;;;18.80;99.90;;;;;;5055711;28;20049;-78
2023/10/03 05:52:11;;;;;;;29.80;13.68;;;18.80;99.90;;;;;;5055900;28;20499;-78
2023/10/03 05:54:37;;;;;;;29.98;13.73;;;18.80;99.90;;;;;;5056288;28;20048;-78
2023/10/03 05:57:03;;;;;;;31.27;14.55;;;18.80;99.90;;;;;;5055279;28;20508;-77
2023/10/03 05:59:29;;;;;;;31.15;15.20;;;18.80;99.90;;;;;;5054068;28;20064;-79
2023/10/03 06:01:57;;;;;;;31.17;14.52;;;18.80;99.90;;;;;;5055454;28;20374;-77
2023/10/03 06:04:23;;;;;;;36.80;14.52;;;18.80;99.90;;;;;;5055985;28;20044;-77
2023/10/03 06:06:49;;;;;;;28.90;13.77;;;18.80;99.90;;;;;;5056284;28;20120;-79
2023/10/03 06:09:15;;;;;;;31.20;14.20;;;18.80;99.90;;;;;;5040001;28;20037;-78
2023/10/03 06:11:42;;;;;;;30.50;13.15;;;18.90;99.90;;;;;;5058461;28;20051;-79
2023/10/03 06:14:08;;;;;;;31.73;13.50;;;18.90;99.90;;;;;;5057046;28;20045;-78
2023/10/03 06:16:36;;;;;;;31.10;13.13;;;18.90;99.90;;;;;;5039718;28;20041;-80
2023/10/03 06:19:01;;;;;;;31.00;13.57;;;18.90;99.90;;;;;;5055305;28;20071;-78
2023/10/03 06:21:27;;;;;;;30.85;14.23;;;18.80;99.90;;;;;;5059670;28;20041;-78
2023/10/03 06:23:53;;;;;;;30.00;13.40;;;18.80;99.90;;;;;;5042396;28;20037;-79
2023/10/03 06:26:18;;;;;;;26.70;13.68;;;18.80;99.90;;;;;;5062201;28;20090;-79
2023/10/03 06:28:45;;;;;;;32.15;13.55;;;18.80;99.90;;;;;;5063380;28;20128;-78
2023/10/03 06:31:11;;;;;;;30.75;12.90;;;18.80;99.90;;;;;;5061207;28;20048;-80
2023/10/03 06:33:37;;;;;;;28.77;13.13;;;18.70;99.90;;;;;;5045539;28;20120;-80
2023/10/03 06:36:06;;;;;;;25.55;12.00;;;18.70;99.90;;;;;;5063508;28;20048;-79
2023/10/03 06:38:32;;;;;;;25.30;11.63;;;18.70;99.90;;;;;;5060790;28;20091;-77
2023/10/03 06:40:58;;;;;;;27.85;11.35;;;18.70;99.90;;;;;;5059726;28;20040;-79
2023/10/03 06:43:23;;;;;;;25.15;11.35;;;18.60;99.90;;;;;;5060569;28;20408;-79
2023/10/03 06:45:49;;;;;;;21.35;10.52;;;18.60;99.90;;;;;;5060010;28;20053;-78
2023/10/03 06:48:14;;;;;;;24.80;9.98;;;18.60;99.90;;;;;;5060243;28;20120;-78
2023/10/03 06:50:42;;;;;;;23.55;10.00;;;18.60;99.90;;;;;;5062157;28;20041;-78
2023/10/03 06:53:08;;;;;;;20.55;9.95;;;18.60;99.90;;;;;;5046026;28;20424;-79
2023/10/03 06:55:35;;;;;;;26.42;9.27;;;18.60;99.90;;;;;;5061030;28;20080;-79
2023/10/03 06:58:04;;;;;;;23.13;9.63;;;18.60;99.90;;;;;;5056781;28;20037;-79
2023/10/03 07:00:32;;;;;;;21.08;9.77;;;18.50;99.90;;;;;;5057190;28;20035;-81
2023/10/03 07:03:00;;;;;;;27.80;8.85;;;18.50;99.90;;;;;;5056478;28;20041;-79
2023/10/03 07:05:26;;;;;;;22.60;8.60;;;18.40;99.90;;;;;;5055425;28;20062;-79
2023/10/03 07:07:51;;;;;;;22.20;8.57;;;18.40;99.90;;;;;;5038632;28;20043;-79
2023/10/03 07:10:17;;;;;;;23.08;8.25;;;18.30;99.90;;;;;;5057027;28;20094;-80
2023/10/03 07:12:43;;;;;;;19.15;8.00;;;18.30;99.90;;;;;;5040775;28;20037;-80
2023/10/03 07:15:09;;;;;;;22.60;8.23;;;18.20;99.90;;;;;;5056800;28;20045;-80
2023/10/03 07:17:35;;;;;;;21.02;7.72;;;18.20;99.90;;;;;;5056787;28;20040;-80
2023/10/03 07:20:04;;;;;;;17.98;7.60;;;18.10;99.90;;;;;;5058253;28;20037;-81
2023/10/03 07:22:30;;;;;;;18.02;7.43;;;18.10;99.90;;;;;;5055908;28;20037;-78
2023/10/03 07:24:56;;;;;;;16.95;6.90;;;18.00;99.90;;;;;;5040394;28;20040;-80
2023/10/03 07:27:22;;;;;;;18.98;6.85;;;18.00;99.90;;;;;;5057064;28;20523;-79
2023/10/03 07:29:47;;;;;;;18.20;6.88;;;18.00;99.90;;;;;;5057166;28;20037;-80
2023/10/03 07:32:14;;;;;;;18.30;7.43;;;18.00;99.90;;;;;;5057266;28;20072;-81
2023/10/03 07:34:45;;;;;;;22.02;7.78;;;18.00;99.90;;;;;;5056303;28;20496;-79
2023/10/03 07:37:12;;;;;;;16.95;7.22;;;17.90;99.90;;;;;;5055416;28;20037;-81
2023/10/03 07:39:38;;;;;;;19.73;7.68;;;17.90;99.90;;;;;;5056929;28;20506;-80
2023/10/03 07:42:05;;;;;;;22.33;6.82;;;17.90;99.90;;;;;;5039676;28;20094;-81
2023/10/03 07:44:31;;;;;;;21.77;6.70;;;17.90;99.90;;;;;;5056171;28;20044;-81
2023/10/03 07:46:57;;;;;;;18.42;6.25;;;17.80;99.90;;;;;;5055825;28;20128;-79
2023/10/03 07:49:22;;;;;;;20.13;6.30;;;17.70;99.90;;;;;;5038912;28;20072;-80
2023/10/03 07:51:59;;;;;;;16.80;5.80;;;17.70;99.90;;;;;;5055608;28;20041;-80
2023/10/03 07:54:28;;;;;;;12.93;5.22;;;17.70;99.90;;;;;;5039840;28;20087;-80
2023/10/03 07:56:53;;;;;;;16.10;5.25;;;17.80;99.90;;;;;;5058017;28;20060;-80
2023/10/03 07:59:19;;;;;;;14.65;5.30;;;17.70;99.90;;;;;;5057669;28;20041;-80
2023/10/03 08:01:44;;;;;;;16.70;5.22;;;17.70;99.90;;;;;;5055532;28;20523;-79
2023/10/03 08:04:12;;;;;;;18.75;5.35;;;17.60;99.90;;;;;;5038950;28;20041;-81
2023/10/03 08:06:39;;;;;;;17.83;4.80;;;17.60;99.90;;;;;;5053426;28;20049;-78
2023/10/03 08:09:04;;;;;;;16.23;5.15;;;17.50;99.90;;;;;;5054303;28;20037;-80
2023/10/03 08:11:31;;;;;;;13.15;3.97;;;17.50;99.90;;;;;;5046818;28;20079;-80
2023/10/03 08:13:58;;;;;;;13.18;3.85;;;17.30;99.90;;;;;;5054120;28;20049;-79
2023/10/03 08:16:28;;;;;;;12.95;3.10;;;17.20;99.90;;;;;;5053107;28;20049;-78
2023/10/03 08:19:01;;;;;;;11.30;3.15;;;17.10;99.90;;;;;;5052574;28;20044;-79
2023/10/03 08:21:28;;;;;;;12.60;3.13;;;17.00;99.90;;;;;;5053695;28;20083;-78
2023/10/03 08:23:58;;;;;;;7.32;2.40;;;16.90;99.90;;;;;;5054645;28;20044;-79
2023/10/03 08:26:25;;;;;;;13.73;2.80;;;16.80;99.90;;;;;;5053460;28;20064;-78
2023/10/03 08:29:04;;;;;;;8.25;2.00;;;16.80;99.90;;;;;;5053049;28;20076;-78
2023/10/03 08:31:30;;;;;;;11.90;2.20;;;16.70;99.90;;;;;;5036766;28;20036;-79
2023/10/03 08:33:56;;;;;;;9.98;1.95;;;16.70;99.90;;;;;;5036759;28;20455;-79
2023/10/03 08:36:31;;;;;;;13.73;2.13;;;16.80;99.90;;;;;;5053540;28;20048;-80
2023/10/03 08:39:12;;;;;;;8.00;1.63;;;16.80;99.90;;;;;;5052658;28;20124;-78
2023/10/03 08:41:53;;;;;;;10.68;1.90;;;16.70;99.90;;;;;;5052860;28;20128;-78
2023/10/03 08:44:23;;;;;;;10.32;1.65;;;16.70;99.90;;;;;;5052665;28;20037;-78
2023/10/03 08:46:50;;;;;;;8.63;1.52;;;16.70;99.90;;;;;;5053170;28;20051;-78
2023/10/03 08:49:19;;;;;;;8.20;1.35;;;16.70;99.90;;;;;;5051673;28;20052;-78
2023/10/03 08:51:48;;;;;;;10.13;1.42;;;16.80;99.90;;;;;;5052423;28;20185;-79
2023/10/03 08:54:14;;;;;;;5.70;1.10;;;16.90;99.90;;;;;;5051652;28;20075;-77
2023/10/03 08:56:41;;;;;;;9.93;1.33;;;16.90;99.90;;;;;;5050418;28;20041;-78
2023/10/03 08:59:15;;;;;;;6.53;1.20;;;16.90;99.90;;;;;;5051864;28;20045;-77
2023/10/03 09:01:46;;;;;;;6.97;1.30;;;16.90;99.90;;;;;;5052239;28;20045;-77
2023/10/03 09:04:18;;;;;;;4.35;0.88;;;16.60;99.90;;;;;;5035175;28;20041;-78
2023/10/03 09:06:45;;;;;;;5.57;0.90;;;16.00;99.90;;;;;;5051328;28;20045;-76
2023/10/03 09:09:16;;;;;;;5.93;0.90;;;15.50;99.90;;;;;;5051065;28;20404;-77
2023/10/03 09:11:43;;;;;;;5.63;1.00;;;15.20;99.90;;;;;;5051358;28;20037;-77
2023/10/03 09:14:19;;;;;;;5.70;0.90;;;15.20;99.90;;;;;;5051967;28;20073;-79
2023/10/03 09:16:51;;;;;;;4.78;0.80;;;15.20;99.90;;;;;;5051515;28;20044;-78
2023/10/03 09:19:23;;;;;;;6.18;0.95;;;15.10;99.90;;;;;;5051124;28;20492;-78
2023/10/03 09:21:51;;;;;;;3.95;0.73;;;15.10;99.90;;;;;;5050765;28;20067;-78
2023/10/03 09:24:20;;;;;;;8.55;1.00;;;15.10;99.90;;;;;;5050466;28;20037;-79
2023/10/03 09:27:07;;;;;;;4.97;1.17;;;14.90;99.90;;;;;;5035074;28;20468;-78
2023/10/03 09:29:33;;;;;;;6.63;0.90;;;14.90;99.90;;;;;;5051884;28;20048;-78
2023/10/03 09:32:20;;;;;;;2.60;0.50;;;15.00;99.90;;;;;;5051577;28;20503;-78
2023/10/03 09:34:56;;;;;;;2.90;0.65;;;14.90;99.90;;;;;;5051891;28;20386;-77
2023/10/03 09:37:28;;;;;;;4.93;0.63;;;14.90;99.90;;;;;;5050859;28;20060;-78
2023/10/03 09:39:59;;;;;;;2.80;0.63;;;14.90;99.90;;;;;;5051040;28;20048;-77
2023/10/03 09:42:25;;;;;;;7.32;0.75;;;14.90;99.90;;;;;;5051541;28;20431;-77
2023/10/03 09:44:51;;;;;;;3.72;0.70;;;15.00;99.90;;;;;;5051276;28;20040;-78
2023/10/03 09:47:18;;;;;;;3.85;0.40;;;15.00;99.90;;;;;;5034677;28;20121;-77
2023/10/03 09:49:46;;;;;;;2.80;0.80;;;15.10;99.90;;;;;;5051397;28;20036;-79
2023/10/03 09:52:26;;;;;;;4.82;0.60;;;15.20;99.90;;;;;;5051316;28;20048;-78
2023/10/03 09:54:59;;;;;;;3.00;0.90;;;15.30;99.90;;;;;;5035105;28;20041;-79
2023/10/03 09:57:28;;;;;;;2.05;0.60;;;15.40;99.90;;;;;;5052724;28;20048;-79
2023/10/03 09:59:55;;;;;;;3.05;0.50;;;15.40;99.90;;;;;;5049100;28;20041;-77
2023/10/03 10:02:31;;;;;;;1.73;0.40;;;15.30;99.90;;;;;;5050414;28;20489;-79
2023/10/03 10:05:21;;;;;;;2.75;0.20;;;15.10;99.90;;;;;;5051750;28;20056;-77
2023/10/03 10:08:06;;;;;;;3.15;0.65;;;14.90;99.90;;;;;;5048921;28;20057;-78
2023/10/03 10:10:34;;;;;;;2.95;0.40;;;14.70;99.90;;;;;;5049575;28;20115;-77
2023/10/03 10:13:20;;;;;;;2.28;0.40;;;14.70;99.90;;;;;;5050025;28;20048;-77
2023/10/03 10:16:07;;;;;;;3.40;0.52;;;14.70;99.90;;;;;;5050016;28;20048;-77
2023/10/03 10:18:45;;;;;;;4.05;0.60;;;14.80;99.90;;;;;;5050071;28;20445;-78
2023/10/03 10:21:25;;;;;;;4.07;1.10;;;14.80;99.90;;;;;;5048712;28;20040;-78
2023/10/03 10:24:16;;;;;;;7.63;1.30;;;15.00;99.90;;;;;;5049985;28;20460;-78
2023/10/03 10:26:48;;;;;;;6.93;1.25;;;15.10;99.90;;;;;;5033574;28;20500;-78
2023/10/03 10:29:19;;;;;;;4.53;1.00;;;15.00;99.90;;;;;;5050026;28;20045;-78
2023/10/03 10:31:49;;;;;;;4.88;0.98;;;15.00;99.90;;;;;;5049945;28;20500;-79
2023/10/03 10:34:21;;;;;;;7.22;1.15;;;15.00;99.90;;;;;;5050028;28;20041;-77
2023/10/03 10:37:04;;;;;;;2.95;0.93;;;15.00;99.90;;;;;;5049819;28;20071;-78
2023/10/03 10:39:56;;;;;;;5.05;1.00;;;15.10;99.90;;;;;;5033249;28;20060;-77
2023/10/03 10:42:26;;;;;;;4.53;1.00;;;15.20;99.90;;;;;;5049808;28;20068;-77
2023/10/03 10:45:04;;;;;;;4.63;1.02;;;15.20;99.90;;;;;;5049478;28;20112;-78
2023/10/03 10:47:35;;;;;;;4.85;1.08;;;15.30;99.90;;;;;;5049516;28;20095;-77
2023/10/03 10:50:01;;;;;;;4.43;0.88;;;15.40;99.90;;;;;;5049477;28;20037;-78
2023/10/03 10:52:30;;;;;;;3.88;0.90;;;15.50;99.90;;;;;;5049546;28;20037;-77
2023/10/03 10:54:56;;;;;;;4.53;0.80;;;15.50;99.90;;;;;;5049801;28;20041;-78
2023/10/03 10:57:26;;;;;;;5.13;1.33;;;15.50;99.90;;;;;;5032688;28;20037;-77
2023/10/03 10:59:53;;;;;;;8.45;1.38;;;15.50;99.90;;;;;;5049493;28;20396;-77
2023/10/03 11:02:20;;;;;;;5.80;1.20;;;15.40;99.90;;;;;;5049476;28;20033;-77
2023/10/03 11:04:54;;;;;;;5.18;1.30;;;15.20;99.90;;;;;;5033195;28;20041;-79
2023/10/03 11:07:23;;;;;;;;;;;15.00;99.90;;;;;;5050268;28;20056;-79
2023/10/03 11:09:51;;;;;;;6.03;1.27;;;14.90;99.90;;;;;;5049151;28;19962;-78
2023/10/03 11:12:27;;;;;;;5.30;1.50;;;14.80;99.90;;;;;;5051906;28;20404;-77
2023/10/03 11:14:56;;;;;;;5.57;1.20;;;14.80;99.90;;;;;;5053266;28;20408;-77
2023/10/03 11:17:25;;;;;;;4.38;1.65;;;14.80;99.90;;;;;;5036575;28;20070;-77
2023/10/03 11:19:52;;;;;;;7.25;1.60;;;14.80;99.90;;;;;;5052632;28;20032;-77
2023/10/03 11:22:18;;;;;;;5.20;1.35;;;14.80;99.90;;;;;;5053054;28;20044;-77
2023/10/03 11:24:45;;;;;;;9.68;1.75;;;14.90;99.90;;;;;;5036168;28;20116;-77
2023/10/03 11:27:26;;;;;;;5.45;1.80;;;14.90;99.90;;;;;;5052674;28;20056;-77
2023/10/03 11:29:52;;;;;;;9.38;1.98;;;14.90;99.90;;;;;;5052730;28;20083;-77
2023/10/03 11:32:30;;;;;;;6.85;1.75;;;15.00;99.90;;;;;;5052710;28;20150;-77
2023/10/03 11:34:57;;;;;;;10.10;2.20;;;15.20;99.90;;;;;;5052655;28;20037;-78
2023/10/03 11:37:36;;;;;;;5.45;2.10;;;15.30;99.90;;;;;;5052511;28;20056;-77
2023/10/03 11:40:23;;;;;;;6.75;1.88;;;15.40;99.90;;;;;;5052263;28;20033;-77
2023/10/03 11:42:58;;;;;;;6.80;2.45;;;15.40;99.90;;;;;;5052764;28;20029;-77
2023/10/03 11:45:28;;;;;;;7.60;1.92;;;15.30;99.90;;;;;;5052404;28;20055;-77
2023/10/03 11:47:58;;;;;;;5.93;2.03;;;15.30;99.90;;;;;;5035671;28;20037;-77
2023/10/03 11:50:25;;;;;;;8.32;2.50;;;15.20;99.90;;;;;;5052111;28;20033;-77
2023/10/03 11:52:52;;;;;;;10.25;2.50;;;15.20;99.90;;;;;;5035933;28;20068;-77
2023/10/03 11:55:19;;;;;;;8.57;2.33;;;15.20;99.90;;;;;;5052036;28;20044;-77
2023/10/03 11:57:45;;;;;;;6.00;1.92;;;15.20;99.90;;;;;;5052133;28;20041;-77
2023/10/03 12:00:14;;;;;;;9.88;2.10;;;15.20;99.90;;;;;;5051903;28;20040;-77
2023/10/03 12:02:47;;;;;;;8.25;2.15;;;15.20;99.90;;;;;;5052358;28;20033;-77
2023/10/03 12:05:13;;;;;;;6.20;2.20;;;15.30;99.90;;;;;;5052320;28;20115;-77
2023/10/03 12:07:39;;;;;;;8.23;2.25;;;15.20;99.90;;;;;;5051867;28;20033;-77
2023/10/03 12:10:12;;;;;;;7.28;2.30;;;15.10;99.90;;;;;;5050773;28;20120;-77
2023/10/03 12:12:38;;;;;;;6.72;2.10;;;15.00;99.90;;;;;;5052325;28;20068;-77
2023/10/03 12:15:08;;;;;;;5.28;2.08;;;14.80;99.90;;;;;;5052107;28;20045;-77
2023/10/03 12:17:33;;;;;;;5.85;2.00;;;14.70;99.90;;;;;;5052050;28;20049;-77
2023/10/03 12:19:59;;;;;;;9.65;2.13;;;14.60;99.90;;;;;;5053163;28;20048;-78
2023/10/03 12:22:24;;;;;;;8.30;1.95;;;14.60;99.90;;;;;;5051774;28;20041;-77
2023/10/03 12:24:51;;;;;;;7.18;2.00;;;14.60;99.90;;;;;;5049595;28;20037;-77
2023/10/03 12:27:17;;;;;;;7.13;2.05;;;14.60;99.90;;;;;;5051642;28;20087;-78
2023/10/03 12:29:43;;;;;;;8.13;1.95;;;14.60;99.90;;;;;;5051423;28;20080;-78
2023/10/03 12:32:09;;;;;;;8.40;2.10;;;14.70;99.90;;;;;;5051078;28;20059;-78
2023/10/03 12:34:34;;;;;;;9.18;2.22;;;14.80;99.90;;;;;;5051676;28;20044;-78
2023/10/03 12:37:03;;;;;;;7.25;2.03;;;14.80;99.90;;;;;;5052078;28;20124;-78
2023/10/03 12:39:31;;;;;;;8.07;1.90;;;15.00;99.90;;;;;;5052724;28;20070;-78
2023/10/03 12:41:56;;;;;;;6.47;1.63;;;15.20;99.90;;;;;;5035138;28;20037;-78
2023/10/03 12:44:22;;;;;;;9.00;1.67;;;15.30;99.90;;;;;;5052597;28;20107;-79
2023/10/03 12:46:49;;;;;;;8.70;2.28;;;15.40;99.90;;;;;;5051660;28;20075;-78